Time;durP1;ratioP1;P1;durP2;ratioP2;P2;SDS_P1;SDS_P2;PMS_P1;PMS_P2;Temp;Humidity;BMP_temperature;BMP_pressure;BME280_temperature;BME280_humidity;BME280_pressure;Samples;Min_cycle;Max_cycle;Signal;HPM_P1;HPM_P2
2022/07/24 00:00:29;;;;;;;7.50;1.95;;;16.60;99.10;;;;;;4114345;28;20039;-83
2022/07/24 00:02:30;;;;;;;3.88;1.85;;;16.50;99.10;;;;;;4114196;28;20515;-83
2022/07/24 00:04:30;;;;;;;3.92;2.55;;;16.50;99.10;;;;;;4113992;28;20098;-83
2022/07/24 00:06:32;;;;;;;4.47;1.63;;;16.50;99.20;;;;;;4113783;28;20050;-83
2022/07/24 00:08:32;;;;;;;5.07;1.98;;;16.50;99.30;;;;;;4146559;28;20124;-83
2022/07/24 00:10:33;;;;;;;4.93;1.65;;;16.50;99.30;;;;;;4131480;28;20093;-83
2022/07/24 00:12:34;;;;;;;4.80;1.80;;;16.50;99.50;;;;;;4114014;28;20082;-83
2022/07/24 00:14:34;;;;;;;3.10;1.63;;;16.40;99.50;;;;;;4114343;28;20539;-84
2022/07/24 00:16:35;;;;;;;4.22;2.15;;;16.40;99.50;;;;;;4114307;28;20058;-83
2022/07/24 00:18:36;;;;;;;2.38;1.80;;;16.40;99.60;;;;;;4131346;28;20049;-83
2022/07/24 00:20:37;;;;;;;4.85;2.85;;;16.40;99.60;;;;;;4114140;28;20062;-83
2022/07/24 00:22:38;;;;;;;4.00;1.95;;;16.40;99.70;;;;;;4114253;28;20043;-83
2022/07/24 00:24:39;;;;;;;7.40;1.88;;;16.40;99.80;;;;;;4131426;28;20046;-83
2022/07/24 00:26:39;;;;;;;4.20;1.70;;;16.40;99.90;;;;;;4131139;28;20061;-83
2022/07/24 00:28:40;;;;;;;5.18;1.67;;;16.40;99.90;;;;;;4114285;28;20055;-83
2022/07/24 00:30:41;;;;;;;2.65;1.88;;;16.30;99.90;;;;;;4131094;28;20042;-83
2022/07/24 00:32:42;;;;;;;4.75;1.88;;;16.30;99.90;;;;;;4113904;28;20059;-83
2022/07/24 00:34:43;;;;;;;2.97;1.80;;;16.30;99.90;;;;;;4114236;28;20074;-83
2022/07/24 00:36:43;;;;;;;4.25;1.77;;;16.30;99.90;;;;;;4131523;28;20133;-83
2022/07/24 00:38:44;;;;;;;3.92;1.70;;;16.30;99.90;;;;;;4113648;28;20047;-83
2022/07/24 00:40:45;;;;;;;2.47;1.77;;;16.20;99.90;;;;;;4113546;28;20047;-83
2022/07/24 00:42:45;;;;;;;1.98;1.58;;;16.20;99.90;;;;;;4131225;28;20121;-83
2022/07/24 00:44:46;;;;;;;9.73;2.25;;;16.20;99.90;;;;;;4115278;28;20558;-83
2022/07/24 00:46:47;;;;;;;4.40;2.03;;;16.20;99.90;;;;;;4134180;28;20654;-83
2022/07/24 00:48:48;;;;;;;3.92;1.90;;;16.20;99.90;;;;;;4133797;28;20053;-83
2022/07/24 00:50:49;;;;;;;2.38;1.70;;;16.10;99.90;;;;;;4100583;28;20574;-83
2022/07/24 00:52:50;;;;;;;4.93;2.05;;;16.10;99.90;;;;;;4133995;28;20610;-83
2022/07/24 00:54:50;;;;;;;2.50;2.30;;;16.10;99.90;;;;;;4116630;28;20043;-83
2022/07/24 00:56:53;;;;;;;4.45;2.72;;;16.00;99.90;;;;;;4116686;28;20550;-83
2022/07/24 00:58:54;;;;;;;3.80;1.98;;;16.00;99.90;;;;;;4148405;28;20058;-83
2022/07/24 01:00:55;;;;;;;5.80;2.08;;;16.00;99.90;;;;;;4133911;28;20038;-83
2022/07/24 01:02:56;;;;;;;7.75;2.47;;;16.00;99.90;;;;;;4148832;28;20553;-83
2022/07/24 01:04:57;;;;;;;3.42;2.40;;;16.00;99.90;;;;;;4116694;28;20055;-83
2022/07/24 01:06:58;;;;;;;4.68;2.60;;;16.00;99.90;;;;;;4148666;28;20520;-83
2022/07/24 01:08:59;;;;;;;4.68;2.88;;;15.90;99.90;;;;;;4149475;28;20042;-83
2022/07/24 01:11:04;;;;;;;2.80;2.00;;;15.90;99.90;;;;;;4133718;28;20550;-83
2022/07/24 01:13:05;;;;;;;5.32;3.03;;;15.90;99.90;;;;;;4116549;28;20122;-83
2022/07/24 01:15:09;;;;;;;6.63;3.15;;;15.90;99.90;;;;;;4116489;28;20058;-83
2022/07/24 01:17:10;;;;;;;4.13;2.65;;;15.90;99.90;;;;;;4115847;28;20084;-83
2022/07/24 01:19:11;;;;;;;4.78;2.70;;;15.80;99.90;;;;;;4148862;28;20432;-83
2022/07/24 01:21:12;;;;;;;5.20;3.03;;;15.80;99.90;;;;;;4116580;28;20047;-83
2022/07/24 01:23:13;;;;;;;3.85;2.60;;;15.80;99.90;;;;;;4149171;28;20049;-83
2022/07/24 01:25:15;;;;;;;8.15;2.70;;;15.80;99.90;;;;;;4133745;28;20142;-83
2022/07/24 01:27:16;;;;;;;3.75;2.85;;;15.80;99.90;;;;;;4133833;28;20088;-83
2022/07/24 01:29:17;;;;;;;6.38;3.00;;;15.80;99.90;;;;;;4115802;28;20090;-83
2022/07/24 01:31:17;;;;;;;4.47;2.88;;;15.80;99.90;;;;;;4116199;28;20062;-83
2022/07/24 01:33:18;;;;;;;5.60;2.72;;;15.70;99.90;;;;;;4116789;28;20463;-83
2022/07/24 01:35:20;;;;;;;4.28;2.72;;;15.70;99.90;;;;;;4148214;28;20041;-83
2022/07/24 01:37:20;;;;;;;4.40;2.63;;;15.70;99.90;;;;;;4115847;28;20055;-83
2022/07/24 01:39:21;;;;;;;6.32;2.85;;;15.70;99.90;;;;;;4133295;28;20503;-83
2022/07/24 01:41:22;;;;;;;3.97;2.80;;;15.70;99.90;;;;;;4133517;28;20380;-83
2022/07/24 01:43:22;;;;;;;4.07;2.80;;;15.70;99.90;;;;;;4133216;28;20054;-83
2022/07/24 01:45:23;;;;;;;4.10;2.63;;;15.70;99.90;;;;;;4115852;28;20051;-83
2022/07/24 01:47:24;;;;;;;5.00;2.92;;;15.60;99.90;;;;;;4116048;28;20523;-83
2022/07/24 01:49:25;;;;;;;4.35;2.83;;;15.70;99.90;;;;;;4133278;28;20066;-83
2022/07/24 01:51:28;;;;;;;6.20;3.33;;;15.70;99.90;;;;;;4132959;28;20093;-83
2022/07/24 01:53:30;;;;;;;5.28;3.05;;;15.60;99.90;;;;;;4099560;29;20053;-83
2022/07/24 01:55:31;;;;;;;6.80;3.03;;;15.60;99.90;;;;;;4133314;28;20074;-83
2022/07/24 01:57:32;;;;;;;9.13;3.15;;;15.60;99.90;;;;;;4116776;28;20051;-83
2022/07/24 01:59:33;;;;;;;4.93;3.00;;;15.60;99.90;;;;;;4117321;28;20535;-83
2022/07/24 02:01:35;;;;;;;4.85;3.28;;;15.60;99.90;;;;;;4117701;28;20054;-83
2022/07/24 02:03:35;;;;;;;6.18;3.05;;;15.60;99.90;;;;;;4117519;28;20435;-83
2022/07/24 02:05:36;;;;;;;3.63;2.85;;;15.60;99.90;;;;;;4117828;28;20055;-83
2022/07/24 02:07:37;;;;;;;6.57;3.33;;;15.60;99.90;;;;;;4134571;28;20046;-83
2022/07/24 02:09:37;;;;;;;3.42;2.60;;;15.60;99.90;;;;;;4116592;28;20101;-83
2022/07/24 02:11:38;;;;;;;7.75;4.03;;;15.50;99.90;;;;;;4133833;28;20050;-83
2022/07/24 02:13:39;;;;;;;4.40;2.70;;;15.50;99.90;;;;;;4116761;28;20047;-83
2022/07/24 02:15:39;;;;;;;5.10;3.17;;;15.60;99.90;;;;;;4133767;28;20144;-83
2022/07/24 02:17:49;;;;;;;5.63;3.10;;;15.60;99.90;;;;;;4116119;28;20066;-83
2022/07/24 02:19:49;;;;;;;9.80;3.38;;;15.50;99.90;;;;;;4116041;28;20078;-83
2022/07/24 02:21:50;;;;;;;5.53;3.33;;;15.50;99.90;;;;;;4116453;28;20046;-83
2022/07/24 02:23:51;;;;;;;5.22;3.22;;;15.50;99.90;;;;;;4148597;28;20053;-83
2022/07/24 02:25:52;;;;;;;8.35;3.50;;;15.50;99.90;;;;;;4133594;28;20073;-83
2022/07/24 02:27:52;;;;;;;6.00;3.38;;;15.50;99.90;;;;;;4115775;28;20043;-83
2022/07/24 02:29:53;;;;;;;7.00;3.10;;;15.50;99.90;;;;;;4115626;28;20133;-83
2022/07/24 02:31:54;;;;;;;4.47;2.80;;;15.50;99.90;;;;;;4115142;28;20054;-83
2022/07/24 02:33:54;;;;;;;5.13;3.10;;;15.50;99.90;;;;;;4132621;28;20042;-83
2022/07/24 02:35:55;;;;;;;4.35;3.10;;;15.50;99.90;;;;;;4100293;29;20496;-83
2022/07/24 02:37:56;;;;;;;5.70;3.33;;;15.50;99.90;;;;;;4115858;28;20410;-83
2022/07/24 02:39:57;;;;;;;5.32;3.20;;;15.50;99.90;;;;;;4132801;28;20073;-83
2022/07/24 02:41:58;;;;;;;4.82;3.50;;;15.50;99.90;;;;;;4115488;28;20047;-83
2022/07/24 02:43:59;;;;;;;9.55;3.30;;;15.50;99.90;;;;;;4133044;28;20050;-83
2022/07/24 02:45:59;;;;;;;6.43;3.67;;;15.50;99.90;;;;;;4115948;28;20059;-83
2022/07/24 02:48:00;;;;;;;4.75;3.20;;;15.50;99.90;;;;;;4132919;28;20050;-83
2022/07/24 02:50:01;;;;;;;7.15;3.72;;;15.40;99.90;;;;;;4115899;28;20047;-83
2022/07/24 02:52:03;;;;;;;9.38;3.92;;;15.50;99.90;;;;;;4116421;28;20046;-83
2022/07/24 02:54:04;;;;;;;7.40;3.40;;;15.50;99.90;;;;;;4132951;28;20057;-83
2022/07/24 02:56:05;;;;;;;6.85;3.60;;;15.40;99.90;;;;;;4115981;28;20559;-82
2022/07/24 02:58:06;;;;;;;4.80;3.42;;;15.40;99.90;;;;;;4148552;28;20050;-82
2022/07/24 03:00:12;;;;;;;5.47;3.20;;;15.40;99.90;;;;;;4100158;28;20047;-83
2022/07/24 03:02:12;;;;;;;6.78;3.65;;;15.40;99.90;;;;;;4133395;28;20050;-83
2022/07/24 03:04:13;;;;;;;7.90;3.65;;;15.40;99.90;;;;;;4115814;28;20578;-83
2022/07/24 03:06:14;;;;;;;6.57;3.40;;;15.40;99.90;;;;;;4132513;28;20093;-82
2022/07/24 03:08:15;;;;;;;9.75;4.00;;;15.40;99.90;;;;;;4132194;28;20054;-82
2022/07/24 03:10:15;;;;;;;4.85;3.20;;;15.60;99.90;;;;;;4115485;28;20046;-82
2022/07/24 03:12:16;;;;;;;5.47;3.25;;;15.40;99.90;;;;;;4099661;29;20051;-83
2022/07/24 03:14:17;;;;;;;6.72;3.53;;;15.40;99.90;;;;;;4132868;28;20050;-82
2022/07/24 03:16:18;;;;;;;5.78;3.55;;;15.40;99.90;;;;;;4114949;28;20055;-83
2022/07/24 03:18:18;;;;;;;5.20;3.65;;;15.40;99.90;;;;;;4098263;29;20059;-82
2022/07/24 03:20:20;;;;;;;4.55;3.22;;;15.40;99.90;;;;;;4131717;28;20408;-83
2022/07/24 03:22:21;;;;;;;6.90;3.75;;;15.30;99.90;;;;;;4131566;28;20046;-83
2022/07/24 03:24:22;;;;;;;6.45;3.50;;;15.30;99.90;;;;;;4131801;28;20050;-83
2022/07/24 03:26:22;;;;;;;7.40;4.03;;;15.30;99.90;;;;;;4114412;28;20050;-82
2022/07/24 03:28:23;;;;;;;5.03;3.70;;;15.30;99.90;;;;;;4098004;29;20047;-83
2022/07/24 03:30:24;;;;;;;7.28;4.30;;;15.40;99.90;;;;;;4146814;28;20045;-83
2022/07/24 03:32:25;;;;;;;9.30;3.70;;;15.40;99.90;;;;;;4098337;28;20126;-82
2022/07/24 03:34:25;;;;;;;6.18;3.25;;;15.40;99.90;;;;;;4113698;28;20488;-83
2022/07/24 03:36:26;;;;;;;6.88;3.50;;;15.40;99.90;;;;;;4114213;28;20129;-83
2022/07/24 03:38:27;;;;;;;6.47;3.83;;;15.40;99.90;;;;;;4131244;28;20050;-82
2022/07/24 03:40:29;;;;;;;5.30;3.38;;;15.40;99.90;;;;;;4113979;28;20054;-82
2022/07/24 03:42:30;;;;;;;6.53;3.35;;;15.40;99.90;;;;;;4146463;28;20088;-83
2022/07/24 03:44:30;;;;;;;4.85;3.33;;;15.40;99.90;;;;;;4114308;28;20043;-83
2022/07/24 03:46:31;;;;;;;8.07;3.88;;;15.40;99.90;;;;;;4146509;28;20046;-83
2022/07/24 03:48:32;;;;;;;5.47;3.75;;;15.40;99.90;;;;;;4098440;28;20631;-83
2022/07/24 03:50:33;;;;;;;4.78;3.13;;;15.50;99.90;;;;;;4131169;28;20043;-83
2022/07/24 03:52:33;;;;;;;5.50;3.33;;;15.50;99.90;;;;;;4113679;28;20054;-83
2022/07/24 03:54:34;;;;;;;12.73;4.10;;;15.50;99.90;;;;;;4114042;28;20070;-83
2022/07/24 03:56:35;;;;;;;7.00;4.00;;;15.50;99.90;;;;;;4114141;28;20411;-83
2022/07/24 03:58:36;;;;;;;7.93;4.07;;;15.50;99.90;;;;;;4098188;29;20059;-83
2022/07/24 04:00:37;;;;;;;4.57;3.15;;;15.50;99.90;;;;;;4145859;28;20545;-83
2022/07/24 04:02:39;;;;;;;7.05;4.00;;;15.50;99.90;;;;;;4131396;28;20045;-82
2022/07/24 04:04:39;;;;;;;7.28;3.25;;;15.50;99.90;;;;;;4114155;28;20480;-82
2022/07/24 04:06:40;;;;;;;4.55;3.78;;;15.50;99.90;;;;;;4149715;28;20085;-82
2022/07/24 04:08:41;;;;;;;8.55;3.85;;;15.50;99.90;;;;;;4115460;28;20055;-82
2022/07/24 04:10:42;;;;;;;5.65;3.50;;;15.50;99.90;;;;;;4147458;28;20556;-82
2022/07/24 04:12:42;;;;;;;6.63;3.40;;;15.50;99.90;;;;;;4134137;28;20085;-82
2022/07/24 04:14:43;;;;;;;5.60;3.53;;;15.50;99.90;;;;;;4132330;28;20534;-82
2022/07/24 04:16:44;;;;;;;7.40;4.20;;;15.50;99.90;;;;;;4115249;28;20117;-82
2022/07/24 04:18:44;;;;;;;9.48;3.50;;;15.50;99.90;;;;;;4115035;28;20046;-82
2022/07/24 04:20:45;;;;;;;7.13;3.88;;;15.60;99.90;;;;;;4150299;28;20042;-82
2022/07/24 04:22:47;;;;;;;6.47;3.45;;;15.50;99.90;;;;;;4149830;28;20053;-82
2022/07/24 04:24:48;;;;;;;6.20;3.67;;;15.50;99.90;;;;;;4135525;28;20402;-82
2022/07/24 04:26:48;;;;;;;7.05;4.32;;;15.60;99.90;;;;;;4118935;28;20046;-82
2022/07/24 04:28:49;;;;;;;7.32;3.80;;;15.60;99.90;;;;;;4117639;28;20215;-82
2022/07/24 04:30:49;;;;;;;5.28;3.80;;;15.60;99.90;;;;;;4149851;28;20057;-82
2022/07/24 04:32:50;;;;;;;7.22;3.95;;;15.60;99.90;;;;;;4149344;28;20050;-82
2022/07/24 04:34:51;;;;;;;5.95;4.03;;;15.60;99.90;;;;;;4117138;28;20119;-82
2022/07/24 04:36:52;;;;;;;5.13;3.42;;;15.60;99.90;;;;;;4134598;28;20483;-82
2022/07/24 04:38:52;;;;;;;6.43;3.95;;;15.60;99.90;;;;;;4134365;28;20090;-82
2022/07/24 04:40:53;;;;;;;6.18;3.70;;;15.60;99.90;;;;;;4117623;28;20055;-82
2022/07/24 04:42:54;;;;;;;6.07;3.42;;;15.60;99.90;;;;;;4149872;28;20510;-83
2022/07/24 04:44:55;;;;;;;7.72;3.25;;;15.60;99.90;;;;;;4133677;28;20046;-82
2022/07/24 04:46:55;;;;;;;5.00;3.88;;;15.60;99.90;;;;;;4117419;28;20424;-82
2022/07/24 04:48:57;;;;;;;5.38;3.55;;;15.70;99.90;;;;;;4134323;28;20046;-82
2022/07/24 04:50:58;;;;;;;5.97;3.58;;;15.70;99.90;;;;;;4134120;28;20406;-82
2022/07/24 04:52:59;;;;;;;6.72;3.58;;;15.70;99.90;;;;;;4133902;28;20084;-82
2022/07/24 04:55:01;;;;;;;4.13;3.25;;;15.70;99.90;;;;;;4133879;28;20043;-82
2022/07/24 04:57:03;;;;;;;5.90;3.92;;;15.80;99.90;;;;;;4101086;29;20058;-83
2022/07/24 04:59:03;;;;;;;6.40;3.70;;;15.80;99.90;;;;;;4134245;28;20458;-83
2022/07/24 05:01:04;;;;;;;5.53;3.83;;;15.80;99.90;;;;;;4117345;28;20399;-83
2022/07/24 05:03:06;;;;;;;4.82;3.70;;;15.90;99.90;;;;;;4116629;28;20046;-83
2022/07/24 05:05:07;;;;;;;5.10;3.42;;;15.90;99.90;;;;;;4133753;28;20086;-83
2022/07/24 05:07:08;;;;;;;6.75;3.70;;;16.00;99.90;;;;;;4133762;28;20081;-82
2022/07/24 05:09:10;;;;;;;8.07;4.07;;;16.00;99.90;;;;;;4134652;28;20477;-82
2022/07/24 05:11:11;;;;;;;10.27;3.55;;;16.00;99.90;;;;;;4101290;29;20066;-82
2022/07/24 05:13:11;;;;;;;4.80;3.60;;;16.10;99.90;;;;;;4148549;28;20062;-83
2022/07/24 05:15:12;;;;;;;6.32;3.35;;;16.30;99.90;;;;;;4116532;28;20042;-83
2022/07/24 05:17:13;;;;;;;8.10;3.40;;;16.30;99.90;;;;;;4115949;28;20081;-83
2022/07/24 05:19:14;;;;;;;6.28;3.35;;;16.40;99.90;;;;;;4102591;28;20059;-82
2022/07/24 05:21:15;;;;;;;6.63;3.88;;;16.50;99.90;;;;;;4136182;28;20072;-82
2022/07/24 05:23:17;;;;;;;5.60;3.53;;;16.60;99.90;;;;;;4116256;28;20118;-83
2022/07/24 05:25:18;;;;;;;7.18;3.88;;;16.60;99.90;;;;;;4115882;28;20097;-83
2022/07/24 05:27:18;;;;;;;9.30;4.22;;;16.60;99.90;;;;;;4116108;28;20098;-83
2022/07/24 05:29:19;;;;;;;6.95;3.70;;;16.70;99.90;;;;;;4116245;28;20046;-83
2022/07/24 05:31:20;;;;;;;6.15;3.97;;;16.70;99.90;;;;;;4115757;28;20051;-83
2022/07/24 05:33:20;;;;;;;6.35;3.47;;;16.80;99.90;;;;;;4115925;28;20125;-82
2022/07/24 05:35:21;;;;;;;8.25;4.10;;;16.80;99.90;;;;;;4132901;28;20468;-84
2022/07/24 05:37:22;;;;;;;6.50;3.78;;;16.90;99.90;;;;;;4100297;29;20047;-83
2022/07/24 05:39:23;;;;;;;6.00;3.28;;;16.90;99.90;;;;;;4115721;28;20047;-83
2022/07/24 05:41:23;;;;;;;4.53;3.38;;;17.00;99.90;;;;;;4147984;28;20069;-83
2022/07/24 05:43:24;;;;;;;7.88;2.85;;;17.00;99.90;;;;;;4148732;28;20565;-84
2022/07/24 05:45:25;;;;;;;7.30;3.58;;;17.10;99.90;;;;;;4100166;29;20047;-83
2022/07/24 05:47:25;;;;;;;8.60;3.78;;;17.10;99.90;;;;;;4133565;28;20084;-83
2022/07/24 05:49:28;;;;;;;8.68;3.70;;;17.20;99.90;;;;;;4116592;28;20101;-83
2022/07/24 05:51:29;;;;;;;6.55;3.78;;;17.20;99.90;;;;;;4148354;28;20045;-83
2022/07/24 05:53:30;;;;;;;7.53;3.95;;;17.30;99.90;;;;;;4115922;28;20062;-83
2022/07/24 05:55:30;;;;;;;6.57;3.80;;;17.40;99.90;;;;;;4132562;28;20399;-83
2022/07/24 05:57:31;;;;;;;5.82;3.58;;;17.40;99.90;;;;;;4099905;29;20057;-83
2022/07/24 05:59:32;;;;;;;5.78;3.40;;;17.40;99.90;;;;;;4133244;28;20065;-83
2022/07/24 06:01:33;;;;;;;7.25;3.72;;;17.50;99.90;;;;;;4133072;28;20061;-83
2022/07/24 06:03:33;;;;;;;6.85;3.47;;;17.50;99.90;;;;;;4115881;28;20073;-84
2022/07/24 06:05:34;;;;;;;6.45;3.83;;;17.50;99.90;;;;;;4115428;28;20047;-83
2022/07/24 06:07:35;;;;;;;7.25;3.88;;;17.50;99.90;;;;;;4148871;28;20054;-83
2022/07/24 06:09:37;;;;;;;5.63;4.00;;;17.60;99.90;;;;;;4100816;29;20059;-83
2022/07/24 06:11:38;;;;;;;5.53;3.58;;;17.70;99.90;;;;;;4134731;28;20407;-83
2022/07/24 06:13:39;;;;;;;8.18;3.95;;;17.80;99.90;;;;;;4100873;29;20154;-83
2022/07/24 06:15:40;;;;;;;6.38;4.07;;;18.00;99.90;;;;;;4116664;28;20042;-83
2022/07/24 06:17:41;;;;;;;7.90;4.47;;;18.10;99.90;;;;;;4117268;28;20130;-81
2022/07/24 06:19:41;;;;;;;7.45;4.40;;;18.20;99.90;;;;;;4133636;28;20042;-82
2022/07/24 06:21:42;;;;;;;11.02;4.63;;;18.30;99.90;;;;;;4133987;28;20108;-83
2022/07/24 06:23:43;;;;;;;5.65;4.20;;;18.30;99.90;;;;;;4133748;28;20505;-82
2022/07/24 06:25:43;;;;;;;7.03;4.38;;;18.30;99.90;;;;;;4115889;28;20114;-82
2022/07/24 06:27:47;;;;;;;11.70;5.03;;;18.40;99.90;;;;;;4133153;28;20050;-83
2022/07/24 06:29:48;;;;;;;8.48;4.78;;;18.50;99.90;;;;;;4132925;28;20046;-82
2022/07/24 06:31:49;;;;;;;9.25;4.65;;;18.60;99.90;;;;;;4133232;28;20038;-83
2022/07/24 06:33:49;;;;;;;8.30;5.18;;;18.80;99.90;;;;;;4132424;28;20053;-82
2022/07/24 06:35:50;;;;;;;7.82;5.38;;;18.90;99.90;;;;;;4131996;28;20053;-83
2022/07/24 06:37:51;;;;;;;7.90;5.28;;;19.10;99.90;;;;;;4132996;28;20043;-83
2022/07/24 06:39:52;;;;;;;7.18;4.97;;;19.20;99.90;;;;;;4133121;28;20062;-83
2022/07/24 06:41:53;;;;;;;11.18;5.60;;;19.30;99.70;;;;;;4131784;28;20069;-83
2022/07/24 06:43:54;;;;;;;11.23;6.18;;;19.40;99.40;;;;;;4133031;28;20535;-83
2022/07/24 06:45:55;;;;;;;9.85;6.20;;;19.50;99.20;;;;;;4133164;28;20046;-83
2022/07/24 06:47:55;;;;;;;9.88;6.70;;;19.60;99.00;;;;;;4099338;29;20091;-83
2022/07/24 06:49:56;;;;;;;10.68;6.40;;;19.70;98.90;;;;;;4099089;28;20054;-83
2022/07/24 06:51:57;;;;;;;13.23;6.05;;;19.80;98.70;;;;;;4132541;28;20046;-83
2022/07/24 06:53:57;;;;;;;10.63;6.22;;;19.80;98.60;;;;;;4114624;28;20054;-83
2022/07/24 06:55:58;;;;;;;9.00;5.80;;;19.90;98.40;;;;;;4115228;28;20137;-83
2022/07/24 06:57:59;;;;;;;10.45;6.45;;;20.00;98.30;;;;;;4132443;28;20050;-83
2022/07/24 06:59:59;;;;;;;10.82;6.35;;;20.10;98.20;;;;;;4115256;28;20055;-83
2022/07/24 07:02:00;;;;;;;10.18;6.03;;;20.20;98.20;;;;;;4132226;28;20038;-83
2022/07/24 07:04:01;;;;;;;9.35;6.28;;;20.30;98.00;;;;;;4114650;28;20399;-83
2022/07/24 07:06:02;;;;;;;12.38;7.00;;;20.30;97.80;;;;;;4132268;28;20487;-83
2022/07/24 07:08:03;;;;;;;10.90;6.60;;;20.40;97.80;;;;;;4114680;28;20073;-83
2022/07/24 07:10:05;;;;;;;14.07;6.63;;;20.40;97.70;;;;;;4114579;28;20126;-83
2022/07/24 07:12:06;;;;;;;10.45;6.32;;;20.50;97.50;;;;;;4147544;28;20046;-83
2022/07/24 07:14:08;;;;;;;13.63;6.13;;;20.60;97.30;;;;;;4115141;28;20491;-83
2022/07/24 07:16:08;;;;;;;37.67;8.98;;;20.60;97.20;;;;;;4097950;29;20436;-83
2022/07/24 07:18:09;;;;;;;11.65;6.63;;;20.60;97.20;;;;;;4132579;28;20046;-83
2022/07/24 07:20:12;;;;;;;10.55;6.60;;;20.70;97.10;;;;;;4114778;28;20133;-83
2022/07/24 07:22:13;;;;;;;10.45;6.10;;;20.70;97.00;;;;;;4147587;28;20049;-83
2022/07/24 07:24:14;;;;;;;11.88;6.75;;;20.80;96.90;;;;;;4114407;28;20082;-84
2022/07/24 07:26:15;;;;;;;11.77;6.95;;;20.80;96.80;;;;;;4131713;28;20101;-83
2022/07/24 07:28:16;;;;;;;9.52;6.22;;;20.90;96.50;;;;;;4098639;29;20059;-84
2022/07/24 07:30:18;;;;;;;11.45;6.35;;;20.90;96.30;;;;;;4131723;28;20100;-84
2022/07/24 07:32:19;;;;;;;9.13;5.97;;;21.00;96.30;;;;;;4146809;28;20046;-84
2022/07/24 07:34:19;;;;;;;8.77;5.72;;;21.20;96.20;;;;;;4114460;28;20054;-84
2022/07/24 07:36:20;;;;;;;10.38;5.85;;;21.30;96.00;;;;;;4131103;28;20484;-84
2022/07/24 07:38:20;;;;;;;15.20;6.10;;;21.50;95.60;;;;;;4131232;28;20517;-84
2022/07/24 07:40:21;;;;;;;9.70;5.82;;;21.70;95.40;;;;;;4131818;28;20050;-84
2022/07/24 07:42:22;;;;;;;10.77;5.43;;;21.80;95.00;;;;;;4114444;28;20054;-84
2022/07/24 07:44:22;;;;;;;8.40;4.82;;;22.00;94.60;;;;;;4114514;28;20047;-84
2022/07/24 07:46:23;;;;;;;9.25;4.63;;;22.20;93.90;;;;;;4114392;28;20082;-84
2022/07/24 07:48:24;;;;;;;10.00;5.28;;;22.40;93.60;;;;;;4134502;28;20038;-84
2022/07/24 07:50:24;;;;;;;10.07;4.88;;;22.60;93.20;;;;;;4101720;28;20050;-84
2022/07/24 07:52:26;;;;;;;9.43;3.80;;;22.80;92.80;;;;;;4099474;29;20055;-84
2022/07/24 07:54:27;;;;;;;7.40;3.78;;;22.80;92.50;;;;;;4135008;28;20129;-84
2022/07/24 07:56:30;;;;;;;7.90;4.50;;;22.80;92.30;;;;;;4139422;28;20057;-84
2022/07/24 07:58:31;;;;;;;6.68;3.50;;;22.80;92.10;;;;;;4137978;28;20050;-84
2022/07/24 08:00:33;;;;;;;6.60;3.22;;;22.80;92.00;;;;;;4117626;28;20050;-84
2022/07/24 08:02:34;;;;;;;6.30;3.10;;;22.70;91.80;;;;;;4137816;28;20554;-84
2022/07/24 08:04:35;;;;;;;4.55;2.78;;;22.60;91.90;;;;;;4120867;28;20198;-84
2022/07/24 08:06:36;;;;;;;3.80;2.45;;;22.70;92.10;;;;;;4150213;28;20049;-84
2022/07/24 08:08:37;;;;;;;3.08;2.30;;;22.80;91.70;;;;;;4117771;28;20050;-84
2022/07/24 08:10:38;;;;;;;7.40;2.33;;;22.90;91.30;;;;;;4118046;28;20082;-84
2022/07/24 08:12:39;;;;;;;3.95;2.20;;;23.00;91.10;;;;;;4117520;28;20545;-84
2022/07/24 08:14:40;;;;;;;3.65;2.17;;;23.10;91.00;;;;;;4117143;28;20054;-84
2022/07/24 08:16:40;;;;;;;4.45;2.15;;;23.10;90.80;;;;;;4149674;28;20042;-84
2022/07/24 08:18:41;;;;;;;6.22;2.00;;;23.10;90.60;;;;;;4134593;28;20049;-84
2022/07/24 08:20:44;;;;;;;5.03;2.20;;;23.00;90.50;;;;;;4134711;28;20100;-84
2022/07/24 08:22:44;;;;;;;2.83;1.98;;;23.10;90.30;;;;;;4118587;28;20058;-83
2022/07/24 08:24:45;;;;;;;3.40;2.30;;;23.20;90.30;;;;;;4149789;28;20054;-83
2022/07/24 08:26:49;;;;;;;4.07;2.28;;;23.30;90.10;;;;;;4118793;28;20058;-82
2022/07/24 08:28:50;;;;;;;4.20;2.35;;;23.50;89.50;;;;;;4149886;28;20050;-84
2022/07/24 08:30:51;;;;;;;4.50;2.47;;;23.60;88.80;;;;;;4120556;28;20574;-83
2022/07/24 08:32:53;;;;;;;5.90;2.40;;;23.80;88.60;;;;;;4137708;28;20032;-82
2022/07/24 08:34:54;;;;;;;5.65;2.30;;;24.00;87.50;;;;;;4100719;29;20047;-83
2022/07/24 08:36:55;;;;;;;3.67;2.15;;;24.10;86.70;;;;;;4137320;28;20046;-83
2022/07/24 08:38:56;;;;;;;4.43;2.30;;;24.10;86.10;;;;;;4137048;28;20103;-83
2022/07/24 08:40:57;;;;;;;3.47;1.98;;;24.20;85.90;;;;;;4133490;28;20046;-83
2022/07/24 08:42:57;;;;;;;3.50;2.20;;;24.10;85.40;;;;;;4116851;28;20050;-83
2022/07/24 08:44:58;;;;;;;6.88;2.58;;;24.10;85.10;;;;;;4134550;28;20047;-83
2022/07/24 08:47:00;;;;;;;5.18;2.30;;;24.00;85.10;;;;;;4116521;28;20077;-83
2022/07/24 08:49:02;;;;;;;3.03;2.05;;;23.90;84.60;;;;;;4134095;28;20501;-83
2022/07/24 08:51:03;;;;;;;3.65;2.25;;;23.80;84.50;;;;;;4116355;28;20396;-83
2022/07/24 08:53:05;;;;;;;4.15;2.08;;;23.80;84.70;;;;;;4148947;28;20092;-83
2022/07/24 08:55:06;;;;;;;3.13;2.30;;;23.80;84.30;;;;;;4116463;28;20058;-83
2022/07/24 08:57:07;;;;;;;4.03;2.13;;;23.80;84.20;;;;;;4116861;28;20043;-83
2022/07/24 08:59:21;;;;;;;2.92;2.20;;;23.70;84.10;;;;;;4148729;28;20537;-83
2022/07/24 09:01:23;;;;;;;2.75;2.00;;;23.70;82.50;;;;;;4149083;28;20056;-83
2022/07/24 09:03:24;;;;;;;4.70;2.20;;;23.70;84.00;;;;;;4116715;28;20456;-83
2022/07/24 09:05:25;;;;;;;3.22;2.28;;;23.80;84.10;;;;;;4133665;28;20043;-83
2022/07/24 09:07:28;;;;;;;6.20;2.65;;;23.90;84.00;;;;;;4117207;28;20777;-83
2022/07/24 09:09:29;;;;;;;3.40;2.13;;;23.90;83.70;;;;;;4116373;28;20125;-83
2022/07/24 09:11:30;;;;;;;6.30;2.38;;;24.10;83.90;;;;;;4133485;28;20129;-83
2022/07/24 09:15:51;;;;;;;6.63;2.30;;;24.30;82.30;;;;;;4133519;28;20057;-84
2022/07/24 09:17:55;;;;;;;4.18;2.50;;;24.30;82.70;;;;;;4116149;28;20483;-83
2022/07/24 09:20:01;;;;;;;5.15;2.10;;;24.30;82.80;;;;;;4133081;28;20042;-83
2022/07/24 09:22:02;;;;;;;3.85;2.40;;;24.20;82.60;;;;;;4115536;28;20054;-83
2022/07/24 09:24:18;;;;;;;3.30;2.42;;;24.20;83.40;;;;;;4133299;28;20125;-84
2022/07/24 09:26:19;;;;;;;3.70;2.38;;;24.20;81.90;;;;;;4100044;29;20504;-83
2022/07/24 09:28:21;;;;;;;4.80;2.40;;;24.50;82.90;;;;;;4116221;28;20039;-83
2022/07/24 09:30:27;;;;;;;3.72;2.08;;;24.70;81.70;;;;;;4132791;28;20088;-83
2022/07/24 09:32:29;;;;;;;5.10;2.55;;;24.80;81.50;;;;;;4115588;28;20093;-83
2022/07/24 09:34:40;;;;;;;4.05;2.35;;;25.10;80.90;;;;;;4115774;28;20046;-83
2022/07/24 09:36:41;;;;;;;4.88;2.60;;;25.20;79.80;;;;;;4148848;28;20049;-83
2022/07/24 09:38:49;;;;;;;3.45;2.25;;;25.30;80.60;;;;;;4110526;28;20082;-84
2022/07/24 09:40:51;;;;;;;20.30;4.03;;;25.50;79.60;;;;;;4101171;29;20055;-83
2022/07/24 09:42:55;;;;;;;4.70;2.10;;;25.60;79.50;;;;;;4100413;29;20685;-83
2022/07/24 09:44:59;;;;;;;4.18;2.15;;;25.70;79.40;;;;;;4099363;29;20046;-83
2022/07/24 09:47:11;;;;;;;4.05;2.55;;;25.70;79.20;;;;;;4100983;29;20088;-83
2022/07/24 09:49:20;;;;;;;5.75;2.58;;;26.00;78.80;;;;;;4102425;29;20055;-82
2022/07/24 09:51:21;;;;;;;3.38;2.13;;;26.20;76.60;;;;;;4101873;28;20051;-83
2022/07/24 09:53:28;;;;;;;3.33;1.88;;;26.30;77.30;;;;;;4106520;29;20087;-83
2022/07/24 09:55:29;;;;;;;4.65;2.03;;;26.40;77.00;;;;;;4087735;29;20101;-84
2022/07/24 09:57:33;;;;;;;5.43;1.75;;;26.40;77.10;;;;;;4101033;28;20051;-83
2022/07/24 09:59:36;;;;;;;3.60;1.70;;;26.40;76.70;;;;;;4102580;29;20059;-83
2022/07/24 10:01:43;;;;;;;3.70;2.20;;;26.60;76.70;;;;;;4099296;29;20051;-84
2022/07/24 10:03:45;;;;;;;2.40;1.42;;;26.70;76.40;;;;;;4100587;29;20464;-83
2022/07/24 10:05:47;;;;;;;2.72;1.67;;;26.90;76.10;;;;;;4099418;29;20066;-83
2022/07/24 10:07:49;;;;;;;2.92;2.17;;;27.10;74.70;;;;;;4084019;29;20055;-84
2022/07/24 10:09:55;;;;;;;2.58;1.38;;;27.00;73.70;;;;;;4102000;29;20097;-83
2022/07/24 10:11:57;;;;;;;3.05;1.75;;;27.00;72.40;;;;;;4100128;29;20097;-83
2022/07/24 10:13:59;;;;;;;3.92;2.08;;;26.90;74.10;;;;;;4100487;29;20055;-84
2022/07/24 10:16:11;;;;;;;3.17;1.67;;;26.80;73.90;;;;;;4099442;29;20087;-83
2022/07/24 10:18:16;;;;;;;3.17;1.88;;;26.80;73.20;;;;;;4098313;29;20507;-84
2022/07/24 10:20:36;;;;;;;1.88;1.70;;;26.90;74.40;;;;;;4100628;29;20047;-84
2022/07/24 10:23:11;;;;;;;5.30;2.08;;;27.10;73.10;;;;;;4099484;29;20047;-84
2022/07/24 10:25:18;;;;;;;3.22;1.90;;;27.20;71.60;;;;;;4091162;29;20107;-84
2022/07/24 10:27:29;;;;;;;1.95;1.30;;;27.10;72.30;;;;;;4099140;29;20440;-83
2022/07/24 10:29:33;;;;;;;2.40;1.65;;;27.10;70.30;;;;;;4098767;29;20416;-83
2022/07/24 10:31:43;;;;;;;3.60;1.70;;;27.10;71.90;;;;;;4099072;29;20050;-83
2022/07/24 10:33:53;;;;;;;7.35;2.80;;;27.10;72.00;;;;;;4100758;29;20043;-84